CYQV

Yorkton Municipal Airport

Yorkton, Saskatchewan, Canada
METAR CYQV 231500Z AUTO 15008KT 9SM CLR M04/M06 A3032 RMK SLP300
Observed Flight Rules
Oct-23 @ 15:00 UTC (an hour ago) Visual Flight Rules
Wind Visibility Clouds
150° at 8 knots 9 miles
  • Clear skies
Temperatures Readings
Current -4°C / 25°F
Dewpoint -6°C / 21°F
Humidity 86%
Altimeter 30.32" Hg
Pressure 1030 hPa
Elevation 498
METAR CYQV 231500Z AUTO 15008KT 9SM CLR M04/M06 A3032 RMK SLP300
Observed Flight Rules
Oct-23 @ 15:00 UTC
(an hour ago)
VFR
Wind Visibility
150° at 8 knots 9 miles
Clouds
  • Clear skies
Temperature Dewpoint
-4°C / 25°F -6°C / 21°F
Humidity Altimeter Pressure
86% 30.32" Hg 1030 hPa